createdAt,value
2022-09-18T00:01:36.963Z,12.34
2022-09-18T00:04:07.113Z,12.24
2022-09-18T00:06:39.090Z,12.55
2022-09-18T00:09:10.867Z,12.09
2022-09-18T00:11:46.548Z,12.14
2022-09-18T00:14:19.577Z,12.45
2022-09-18T00:16:48.300Z,12.34
2022-09-18T00:19:17.192Z,12.45
2022-09-18T00:21:49.048Z,12.34
2022-09-18T00:24:17.910Z,12.43
2022-09-18T00:26:47.254Z,12.58
2022-09-18T00:29:18.073Z,12.50
2022-09-18T00:31:46.240Z,12.40
2022-09-18T00:34:15.803Z,12.47
2022-09-18T00:36:43.956Z,12.23
2022-09-18T00:39:12.955Z,12.63
2022-09-18T00:41:43.409Z,12.74
2022-09-18T00:44:33.308Z,12.43
2022-09-18T00:47:20.574Z,12.69
2022-09-18T00:50:07.405Z,12.89
2022-09-18T00:52:58.041Z,12.74
2022-09-18T00:55:40.149Z,12.86
2022-09-18T00:58:08.401Z,12.96
2022-09-18T01:00:37.201Z,12.82
2022-09-18T01:03:05.515Z,12.90
2022-09-18T01:05:57.208Z,13.03
2022-09-18T01:08:48.994Z,12.90
2022-09-18T01:11:45.184Z,12.63
2022-09-18T01:14:44.255Z,12.75
2022-09-18T01:17:26.560Z,12.94
2022-09-18T01:20:31.844Z,12.97
2022-09-18T01:23:59.885Z,12.76
2022-09-18T01:26:56.230Z,12.95
2022-09-18T01:30:07.697Z,12.79
2022-09-18T01:32:55.228Z,12.92
2022-09-18T01:35:48.360Z,12.79
2022-09-18T01:38:57.704Z,12.86
2022-09-18T01:41:29.316Z,12.80
2022-09-18T01:44:05.868Z,12.67
2022-09-18T01:46:37.574Z,12.68
2022-09-18T01:49:20.737Z,12.70
2022-09-18T01:52:05.251Z,12.72
2022-09-18T01:54:36.385Z,12.79
2022-09-18T01:57:19.847Z,12.85
2022-09-18T02:00:02.712Z,12.85
2022-09-18T02:02:37.714Z,12.78
2022-09-18T02:05:08.795Z,12.84
2022-09-18T02:08:02.242Z,12.75
2022-09-18T02:10:35.494Z,12.78
2022-09-18T02:13:08.395Z,12.71
2022-09-18T02:15:40.228Z,12.75
2022-09-18T02:18:29.095Z,12.66
2022-09-18T02:21:01.117Z,12.55
2022-09-18T02:23:29.992Z,12.65
2022-09-18T02:26:04.670Z,12.38
2022-09-18T02:28:34.800Z,12.54
2022-09-18T02:31:03.312Z,12.62
2022-09-18T02:33:35.877Z,12.54
2022-09-18T02:36:12.388Z,12.39
2022-09-18T02:39:14.956Z,12.53
2022-09-18T02:42:15.190Z,12.65
2022-09-18T02:45:07.029Z,12.54
2022-09-18T02:47:40.618Z,12.58
2022-09-18T02:50:18.014Z,12.60
2022-09-18T02:53:13.208Z,12.41
2022-09-18T02:55:58.591Z,12.48
2022-09-18T02:58:55.120Z,12.09
2022-09-18T03:01:26.860Z,12.16
2022-09-18T03:03:55.790Z,12.26
2022-09-18T03:06:36.617Z,12.15
2022-09-18T03:09:04.646Z,12.17
2022-09-18T03:11:32.490Z,12.34
2022-09-18T03:14:00.202Z,12.38
2022-09-18T03:16:28.059Z,12.35
2022-09-18T03:18:55.958Z,12.50
2022-09-18T03:21:23.861Z,12.40
2022-09-18T03:23:52.025Z,12.43
2022-09-18T03:26:26.127Z,12.48
2022-09-18T03:28:54.775Z,12.59
2022-09-18T03:31:22.578Z,12.57
2022-09-18T03:33:50.970Z,12.63
2022-09-18T03:36:20.209Z,12.60
2022-09-18T03:38:47.926Z,12.68
2022-09-18T03:41:15.750Z,12.32
2022-09-18T03:43:43.867Z,12.37
2022-09-18T03:46:12.865Z,12.45
2022-09-18T03:48:40.698Z,12.58
2022-09-18T03:51:08.501Z,12.48
2022-09-18T03:53:36.246Z,12.61
2022-09-18T03:56:18.699Z,12.32
2022-09-18T03:59:01.097Z,12.54
2022-09-18T04:01:47.503Z,12.65
2022-09-18T04:04:28.492Z,12.59
2022-09-18T04:07:14.513Z,12.70
2022-09-18T04:09:51.093Z,12.74
2022-09-18T04:12:18.879Z,12.69
2022-09-18T04:14:55.314Z,12.61
2022-09-18T04:17:23.920Z,12.78
2022-09-18T04:19:53.754Z,12.81
2022-09-18T04:22:22.865Z,12.80
2022-09-18T04:24:50.670Z,12.89
2022-09-18T04:27:18.661Z,12.88
2022-09-18T04:29:46.501Z,12.86
2022-09-18T04:32:16.951Z,12.68
2022-09-18T04:34:44.792Z,12.74
2022-09-18T04:37:12.985Z,12.77
2022-09-18T04:39:40.954Z,12.75
2022-09-18T04:42:10.176Z,12.69
2022-09-18T04:44:39.108Z,12.75
2022-09-18T04:47:08.526Z,12.68
2022-09-18T04:49:36.306Z,12.73
2022-09-18T04:52:04.136Z,12.78
2022-09-18T04:54:32.262Z,12.88
2022-09-18T04:57:00.114Z,12.69
2022-09-18T04:59:28.024Z,12.62
2022-09-18T05:01:59.244Z,12.63
2022-09-18T05:04:27.544Z,12.69
2022-09-18T05:07:08.359Z,12.68
2022-09-18T05:09:37.566Z,12.77
2022-09-18T05:12:07.268Z,12.82
2022-09-18T05:14:37.475Z,12.88
2022-09-18T05:17:08.219Z,12.92
2022-09-18T05:19:39.493Z,12.80
2022-09-18T05:22:20.375Z,12.79
2022-09-18T05:24:51.021Z,12.86
2022-09-18T05:27:20.628Z,13.00
2022-09-18T05:29:51.333Z,12.92
2022-09-18T05:32:23.101Z,12.73
2022-09-18T05:34:52.162Z,12.61
2022-09-18T05:37:20.020Z,12.80
2022-09-18T05:39:52.684Z,12.86
2022-09-18T05:42:20.841Z,12.94
2022-09-18T05:44:49.840Z,12.88
2022-09-18T05:47:22.012Z,12.86
2022-09-18T05:49:49.813Z,12.87
2022-09-18T05:52:17.620Z,12.77
2022-09-18T05:54:45.360Z,12.85
2022-09-18T05:57:13.126Z,12.84
2022-09-18T05:59:41.126Z,12.97
2022-09-18T06:02:10.698Z,12.95
2022-09-18T06:05:05.389Z,12.99
2022-09-18T06:07:33.299Z,13.06
2022-09-18T06:10:02.826Z,13.02
2022-09-18T06:12:31.484Z,12.93
2022-09-18T06:14:59.213Z,12.99
2022-09-18T06:17:27.638Z,12.86
2022-09-18T06:20:00.009Z,13.02
2022-09-18T06:22:27.840Z,13.05
2022-09-18T06:24:58.697Z,12.96
2022-09-18T06:27:33.834Z,13.05
2022-09-18T06:30:02.111Z,12.96
2022-09-18T06:32:33.798Z,13.04
2022-09-18T06:35:01.641Z,13.13
2022-09-18T06:37:29.625Z,13.15
2022-09-18T06:40:25.654Z,13.15
2022-09-18T06:43:13.661Z,13.16
2022-09-18T06:46:11.762Z,13.00
2022-09-18T06:48:44.893Z,13.09
2022-09-18T06:51:12.954Z,13.06
2022-09-18T06:54:06.617Z,13.10
2022-09-18T06:56:34.562Z,12.92
2022-09-18T06:59:02.502Z,13.02
2022-09-18T07:01:36.635Z,13.13
2022-09-18T07:04:11.294Z,13.07
2022-09-18T07:06:47.167Z,13.03
2022-09-18T07:09:15.746Z,13.12
2022-09-18T07:12:01.370Z,13.05
2022-09-18T07:14:49.435Z,13.01
2022-09-18T07:17:19.239Z,13.02
2022-09-18T07:19:53.724Z,12.99
2022-09-18T07:22:25.098Z,13.12
2022-09-18T07:24:52.908Z,13.07
2022-09-18T07:27:20.633Z,13.03
2022-09-18T07:29:50.876Z,13.02
2022-09-18T07:32:22.597Z,13.25
2022-09-18T07:34:50.630Z,13.18
2022-09-18T07:37:29.565Z,13.44
2022-09-18T07:40:23.471Z,13.43
2022-09-18T07:43:10.914Z,13.32
2022-09-18T07:45:45.498Z,13.19
2022-09-18T07:48:13.931Z,13.14
2022-09-18T07:50:47.483Z,13.32
2022-09-18T07:53:17.814Z,13.23
2022-09-18T07:55:50.169Z,13.54
2022-09-18T07:58:19.385Z,13.74
2022-09-18T08:01:07.302Z,13.69
2022-09-18T08:03:41.996Z,13.58
2022-09-18T08:06:12.965Z,13.67
2022-09-18T08:09:07.284Z,13.80
2022-09-18T08:11:54.148Z,13.68
2022-09-18T08:14:30.128Z,13.62
2022-09-18T08:17:24.063Z,13.87
2022-09-18T08:20:10.501Z,13.90
2022-09-18T08:22:43.632Z,13.86
2022-09-18T08:25:12.961Z,14.09
2022-09-18T08:27:43.619Z,14.05
2022-09-18T08:30:15.719Z,14.20
2022-09-18T08:32:45.559Z,14.32
2022-09-18T08:35:13.354Z,14.35
2022-09-18T08:37:48.842Z,14.38
2022-09-18T08:41:06.529Z,14.41
2022-09-18T08:44:08.546Z,13.95
2022-09-18T08:46:49.541Z,14.00
2022-09-18T08:49:46.869Z,13.92
2022-09-18T08:52:23.379Z,13.26
2022-09-18T08:55:14.750Z,13.83
2022-09-18T08:58:16.792Z,13.91
2022-09-18T09:00:56.521Z,13.95
2022-09-18T09:03:54.738Z,14.01
2022-09-18T09:06:38.807Z,13.95
2022-09-18T09:09:31.528Z,13.93
2022-09-18T09:12:46.168Z,14.02
2022-09-18T09:15:28.939Z,14.28
2022-09-18T09:18:17.473Z,14.07
2022-09-18T09:20:57.917Z,14.03
2022-09-18T09:24:23.373Z,14.02
2022-09-18T09:27:27.714Z,14.07
2022-09-18T09:30:28.090Z,14.37
2022-09-18T09:34:05.182Z,14.45
2022-09-18T09:36:59.119Z,14.19
2022-09-18T09:39:48.068Z,14.23
2022-09-18T09:42:42.344Z,14.46
2022-09-18T09:45:35.946Z,14.47
2022-09-18T09:48:42.219Z,14.21
2022-09-18T09:51:50.155Z,14.36
2022-09-18T09:54:36.940Z,14.43
2022-09-18T09:57:54.840Z,14.32
2022-09-18T10:00:24.500Z,14.54
2022-09-18T10:03:58.694Z,14.14
2022-09-18T10:07:23.418Z,14.25
2022-09-18T10:10:22.135Z,14.59
2022-09-18T10:13:09.440Z,14.67
2022-09-18T10:15:46.789Z,14.25
2022-09-18T10:18:33.885Z,14.56
2022-09-18T10:21:22.549Z,14.82
2022-09-18T10:24:11.168Z,14.65
2022-09-18T10:26:58.772Z,14.89
2022-09-18T10:29:26.778Z,14.97
2022-09-18T10:32:01.349Z,15.31
2022-09-18T10:34:37.630Z,15.55
2022-09-18T10:37:06.407Z,15.85
2022-09-18T10:39:38.982Z,15.60
2022-09-18T10:42:18.274Z,15.31
2022-09-18T10:45:01.633Z,15.47
2022-09-18T10:47:36.220Z,15.69
2022-09-18T10:50:13.311Z,15.91
2022-09-18T10:52:49.100Z,15.84
2022-09-18T10:55:27.622Z,15.91
2022-09-18T10:58:13.580Z,15.47
2022-09-18T11:01:17.093Z,15.63
2022-09-18T11:04:04.555Z,15.83
2022-09-18T11:06:38.245Z,16.09
2022-09-18T11:09:22.040Z,16.35
2022-09-18T11:11:51.461Z,15.66
2022-09-18T11:14:31.851Z,15.48
2022-09-18T11:17:31.096Z,15.51
2022-09-18T11:20:04.658Z,15.44
2022-09-18T11:22:44.436Z,15.67
2022-09-18T11:25:38.305Z,15.52
2022-09-18T11:28:28.500Z,15.43
2022-09-18T11:31:20.010Z,15.73
2022-09-18T11:34:00.721Z,15.69
2022-09-18T11:36:33.757Z,15.87
2022-09-18T11:39:21.390Z,16.03
2022-09-18T11:41:55.295Z,16.41
2022-09-18T11:44:34.541Z,16.07
2022-09-18T11:47:09.807Z,16.14
2022-09-18T11:50:00.581Z,16.27
2022-09-18T11:52:39.320Z,16.17
2022-09-18T11:55:35.985Z,16.42
2022-09-18T11:58:16.993Z,16.44
2022-09-18T12:01:19.220Z,16.63
2022-09-18T12:04:10.158Z,16.22
2022-09-18T12:06:56.662Z,16.29
2022-09-18T12:09:45.444Z,16.11
2022-09-18T12:12:36.004Z,16.53
2022-09-18T12:15:19.653Z,16.74
2022-09-18T12:18:19.818Z,16.53
2022-09-18T12:21:16.061Z,16.54
2022-09-18T12:23:44.331Z,17.05
2022-09-18T12:26:39.962Z,17.09
2022-09-18T12:29:19.586Z,17.24
2022-09-18T12:32:22.561Z,17.66
2022-09-18T12:35:35.867Z,17.55
2022-09-18T12:38:31.724Z,16.90
2022-09-18T12:41:48.524Z,16.43
2022-09-18T12:44:31.218Z,16.63
2022-09-18T12:47:11.969Z,16.79
2022-09-18T12:50:23.124Z,16.34
2022-09-18T12:53:25.016Z,16.80
2022-09-18T12:56:49.110Z,16.21
2022-09-18T12:59:52.459Z,16.31
2022-09-18T13:02:25.904Z,16.73
2022-09-18T13:05:06.002Z,16.59
2022-09-18T13:08:10.556Z,16.37
2022-09-18T13:10:43.536Z,16.40
2022-09-18T13:13:35.130Z,16.18
2022-09-18T13:16:22.361Z,16.37
2022-09-18T13:18:59.353Z,16.40
2022-09-18T13:21:44.549Z,16.43
2022-09-18T13:24:20.372Z,16.16
2022-09-18T13:26:51.102Z,16.11
2022-09-18T13:30:15.010Z,15.82
2022-09-18T13:32:43.061Z,16.16
2022-09-18T13:35:13.835Z,15.99
2022-09-18T13:37:42.792Z,15.89
2022-09-18T13:40:40.486Z,15.61
2022-09-18T13:43:20.713Z,15.80
2022-09-18T13:45:48.996Z,15.67
2022-09-18T13:48:45.837Z,15.82
2022-09-18T13:51:29.538Z,15.63
2022-09-18T13:54:11.074Z,15.85
2022-09-18T13:57:05.372Z,16.09
2022-09-18T13:59:49.695Z,15.70
2022-09-18T14:02:31.291Z,15.88
2022-09-18T14:05:41.159Z,16.26
2022-09-18T14:08:23.553Z,16.22
2022-09-18T14:11:15.518Z,16.45
2022-09-18T14:13:58.913Z,16.76
2022-09-18T14:16:38.859Z,16.86
2022-09-18T14:19:32.357Z,16.65
2022-09-18T14:22:01.519Z,16.51
2022-09-18T14:24:57.711Z,16.34
2022-09-18T14:27:58.128Z,16.35
2022-09-18T14:30:31.402Z,16.52
2022-09-18T14:33:06.207Z,16.91
2022-09-18T14:35:43.137Z,16.77
2022-09-18T14:38:26.456Z,16.05
2022-09-18T14:41:08.900Z,16.50
2022-09-18T14:43:47.352Z,16.39
2022-09-18T14:46:21.767Z,16.70
2022-09-18T14:48:50.487Z,16.94
2022-09-18T14:51:25.760Z,16.82
2022-09-18T14:53:57.064Z,16.83
2022-09-18T14:56:35.352Z,16.38
2022-09-18T14:59:14.489Z,16.46
2022-09-18T15:01:42.400Z,16.65
2022-09-18T15:04:25.967Z,16.91
2022-09-18T15:06:54.854Z,17.02
2022-09-18T15:09:33.354Z,17.03
2022-09-18T15:12:03.170Z,17.13
2022-09-18T15:14:44.119Z,17.30
2022-09-18T15:17:27.730Z,17.24
2022-09-18T15:20:08.855Z,16.76
2022-09-18T15:22:36.631Z,16.57
2022-09-18T15:25:05.488Z,16.89
2022-09-18T15:27:33.372Z,16.79
2022-09-18T15:30:14.680Z,16.71
2022-09-18T15:32:51.221Z,16.83
2022-09-18T15:35:32.232Z,16.71
2022-09-18T15:38:04.450Z,16.73
2022-09-18T15:40:36.650Z,16.72
2022-09-18T15:43:26.980Z,16.47
2022-09-18T15:46:09.373Z,16.54
2022-09-18T15:48:40.038Z,16.65
2022-09-18T15:51:24.444Z,16.69
2022-09-18T15:54:09.224Z,16.59
2022-09-18T15:56:49.442Z,16.45
2022-09-18T15:59:40.703Z,16.43
2022-09-18T16:02:37.572Z,16.47
2022-09-18T16:05:15.053Z,16.58
2022-09-18T16:07:52.616Z,16.48
2022-09-18T16:10:35.553Z,16.57
2022-09-18T16:13:10.926Z,16.63
2022-09-18T16:15:40.427Z,16.65
2022-09-18T16:18:19.919Z,16.62
2022-09-18T16:20:53.923Z,16.70
2022-09-18T16:23:50.719Z,16.63
2022-09-18T16:26:27.999Z,16.63
2022-09-18T16:28:59.198Z,16.65
2022-09-18T16:31:32.160Z,16.67
2022-09-18T16:34:04.637Z,16.66
2022-09-18T16:36:42.676Z,16.62
2022-09-18T16:39:18.575Z,16.58
2022-09-18T16:41:47.329Z,16.61
2022-09-18T16:44:18.265Z,16.59
2022-09-18T16:46:54.371Z,16.56
2022-09-18T16:49:27.939Z,16.51
2022-09-18T16:51:55.925Z,16.55
2022-09-18T16:54:26.671Z,16.48
2022-09-18T16:56:59.912Z,16.54
2022-09-18T16:59:31.643Z,16.40
2022-09-18T17:02:04.600Z,16.44
2022-09-18T17:04:33.915Z,16.48
2022-09-18T17:07:03.399Z,16.38
2022-09-18T17:09:31.479Z,16.45
2022-09-18T17:11:59.787Z,16.40
2022-09-18T17:14:27.611Z,16.38
2022-09-18T17:16:55.643Z,16.34
2022-09-18T17:19:23.664Z,16.29
2022-09-18T17:21:51.433Z,16.28
2022-09-18T17:24:25.564Z,16.16
2022-09-18T17:26:54.136Z,16.38
2022-09-18T17:29:22.127Z,16.26
2022-09-18T17:31:50.407Z,16.30
2022-09-18T17:34:19.072Z,16.31
2022-09-18T17:36:46.997Z,16.28
2022-09-18T17:39:17.056Z,16.18
2022-09-18T17:41:45.933Z,16.25
2022-09-18T17:44:15.210Z,16.18
2022-09-18T17:46:43.077Z,16.01
2022-09-18T17:49:10.851Z,16.18
2022-09-18T17:51:38.648Z,16.12
2022-09-18T17:54:06.542Z,16.17
2022-09-18T17:56:35.071Z,16.13
2022-09-18T17:59:09.768Z,16.20
2022-09-18T18:01:43.175Z,15.86
2022-09-18T18:04:10.965Z,16.13
2022-09-18T18:06:38.837Z,16.12
2022-09-18T18:09:09.861Z,16.04
2022-09-18T18:11:38.735Z,16.13
2022-09-18T18:14:06.581Z,16.10
2022-09-18T18:16:35.198Z,16.12
2022-09-18T18:19:07.077Z,16.11
2022-09-18T18:21:35.124Z,16.14
2022-09-18T18:24:09.087Z,16.03
2022-09-18T18:26:39.211Z,15.97
2022-09-18T18:29:10.751Z,16.03
2022-09-18T18:31:40.664Z,15.93
2022-09-18T18:34:10.793Z,15.68
2022-09-18T18:36:40.957Z,15.74
2022-09-18T18:39:12.302Z,15.74
2022-09-18T18:41:40.928Z,15.70
2022-09-18T18:44:11.497Z,15.48
2022-09-18T18:46:40.114Z,15.47
2022-09-18T18:49:15.035Z,15.58
2022-09-18T18:51:47.690Z,15.45
2022-09-18T18:54:19.011Z,15.77
2022-09-18T18:56:47.883Z,15.52
2022-09-18T18:59:18.535Z,15.29
2022-09-18T19:01:47.379Z,15.18
2022-09-18T19:04:21.595Z,15.07
2022-09-18T19:06:49.671Z,15.23
2022-09-18T19:09:28.603Z,15.16
2022-09-18T19:11:57.565Z,15.18
2022-09-18T19:14:31.593Z,15.47
2022-09-18T19:16:59.970Z,15.47
2022-09-18T19:19:29.088Z,15.75
2022-09-18T19:22:00.254Z,15.43
2022-09-18T19:24:28.816Z,15.36
2022-09-18T19:26:58.824Z,15.27
2022-09-18T19:29:27.419Z,15.37
2022-09-18T19:31:56.417Z,15.34
2022-09-18T19:34:24.368Z,15.34
2022-09-18T19:36:52.607Z,15.26
2022-09-18T19:39:22.511Z,15.10
2022-09-18T19:42:04.540Z,15.34
2022-09-18T19:44:40.618Z,15.28
2022-09-18T19:47:31.673Z,15.12
2022-09-18T19:50:02.168Z,15.24
2022-09-18T19:52:30.198Z,14.83
2022-09-18T19:54:59.098Z,14.99
2022-09-18T19:57:28.571Z,15.11
2022-09-18T19:59:57.345Z,14.83
2022-09-18T20:02:25.803Z,14.99
2022-09-18T20:04:53.798Z,14.65
2022-09-18T20:07:21.513Z,13.72
2022-09-18T20:09:49.292Z,13.69
2022-09-18T20:12:17.100Z,13.50
2022-09-18T20:14:45.251Z,13.58
2022-09-18T20:17:13.500Z,13.08
2022-09-18T20:19:41.263Z,12.89
2022-09-18T20:22:09.022Z,12.79
2022-09-18T20:24:36.779Z,12.85
2022-09-18T20:27:04.614Z,12.79
2022-09-18T20:29:32.498Z,13.06
2022-09-18T20:32:00.368Z,12.96
2022-09-18T20:34:28.251Z,13.27
2022-09-18T20:36:56.016Z,13.27
2022-09-18T20:39:23.826Z,13.00
2022-09-18T20:41:51.598Z,13.10
2022-09-18T20:44:19.634Z,13.27
2022-09-18T20:46:47.477Z,13.44
2022-09-18T20:49:18.092Z,13.59
2022-09-18T20:51:46.080Z,13.54
2022-09-18T20:54:14.996Z,13.70
2022-09-18T20:56:44.362Z,13.78
2022-09-18T20:59:16.579Z,13.88
2022-09-18T21:01:47.828Z,13.71
2022-09-18T21:04:17.741Z,13.83
2022-09-18T21:06:57.412Z,13.85
2022-09-18T21:09:28.145Z,13.90
2022-09-18T21:11:58.921Z,13.97
2022-09-18T21:14:27.384Z,13.94
2022-09-18T21:16:55.994Z,14.00
2022-09-18T21:19:26.375Z,13.99
2022-09-18T21:21:54.488Z,13.95
2022-09-18T21:24:22.464Z,13.99
2022-09-18T21:26:50.326Z,13.79
2022-09-18T21:29:25.268Z,13.73
2022-09-18T21:32:00.104Z,13.76
2022-09-18T21:34:31.358Z,13.61
2022-09-18T21:37:04.354Z,13.46
2022-09-18T21:39:32.668Z,13.68
2022-09-18T21:42:02.475Z,13.67
2022-09-18T21:44:31.910Z,13.43
2022-09-18T21:47:10.746Z,13.44
2022-09-18T21:49:38.780Z,13.35
2022-09-18T21:52:08.819Z,13.41
2022-09-18T21:54:36.583Z,13.26
2022-09-18T21:57:04.843Z,13.17
2022-09-18T21:59:32.969Z,13.49
2022-09-18T22:02:03.261Z,13.23
2022-09-18T22:04:32.869Z,13.53
2022-09-18T22:07:02.050Z,13.50
2022-09-18T22:09:39.225Z,13.51
2022-09-18T22:12:07.865Z,13.26
2022-09-18T22:14:38.379Z,13.43
2022-09-18T22:17:09.236Z,13.18
2022-09-18T22:19:41.165Z,13.10
2022-09-18T22:22:10.868Z,13.24
2022-09-18T22:24:39.232Z,13.36
2022-09-18T22:27:08.548Z,13.06
2022-09-18T22:29:39.421Z,12.78
2022-09-18T22:32:10.114Z,12.60
2022-09-18T22:34:38.419Z,12.30
2022-09-18T22:37:06.125Z,12.06
2022-09-18T22:39:34.064Z,12.46
2022-09-18T22:42:01.923Z,12.21
2022-09-18T22:44:31.146Z,12.20
2022-09-18T22:46:58.948Z,12.11
2022-09-18T22:49:26.752Z,11.91
2022-09-18T22:51:54.613Z,11.60
2022-09-18T22:54:25.981Z,11.92
2022-09-18T22:56:55.166Z,11.87
2022-09-18T22:59:26.552Z,11.94
2022-09-18T23:02:02.353Z,12.05
2022-09-18T23:04:32.892Z,11.45
2022-09-18T23:07:01.667Z,11.49
2022-09-18T23:09:31.117Z,11.58
2022-09-18T23:11:59.778Z,11.33
2022-09-18T23:14:30.168Z,11.69
2022-09-18T23:16:59.613Z,11.71
2022-09-18T23:19:31.633Z,11.91
2022-09-18T23:21:59.509Z,11.65
2022-09-18T23:24:28.186Z,11.77
2022-09-18T23:26:58.185Z,11.89
2022-09-18T23:29:28.533Z,11.68
2022-09-18T23:31:59.501Z,11.73
2022-09-18T23:34:31.465Z,11.62
2022-09-18T23:37:00.209Z,11.67
2022-09-18T23:39:34.897Z,11.53
2022-09-18T23:42:05.733Z,11.60
2022-09-18T23:44:34.292Z,11.79
2022-09-18T23:47:02.895Z,11.86
2022-09-18T23:49:31.451Z,11.91
2022-09-18T23:51:59.823Z,11.69
2022-09-18T23:54:31.097Z,11.86
2022-09-18T23:56:59.433Z,11.95
2022-09-18T23:59:28.138Z,11.81
